Time;durP1;ratioP1;P1;durP2;ratioP2;P2;SDS_P1;SDS_P2;PMS_P1;PMS_P2;Temp;Humidity;BMP_temperature;BMP_pressure;BME280_temperature;BME280_humidity;BME280_pressure;Samples;Min_cycle;Max_cycle;Signal;HPM_P1;HPM_P2
2023/04/10 00:01:02;;;;;;;9.05;6.65;;;;;;;10.35;53.20;100977.56;5011971;28;20108;-82
2023/04/10 00:03:27;;;;;;;11.05;7.28;;;;;;;10.30;54.13;100971.69;5012094;28;20118;-82
2023/04/10 00:05:53;;;;;;;16.77;7.78;;;;;;;10.27;54.16;100961.16;5011687;28;20025;-82
2023/04/10 00:08:23;;;;;;;10.07;6.00;;;;;;;10.29;53.55;100961.91;5021255;28;20041;-83
2023/04/10 00:10:49;;;;;;;12.48;6.43;;;;;;;10.31;53.19;100976.06;5015606;28;20077;-83
2023/04/10 00:13:15;;;;;;;10.43;6.57;;;;;;;10.30;53.61;100966.31;5011772;28;20038;-81
2023/04/10 00:15:40;;;;;;;8.85;6.10;;;;;;;10.30;53.73;100969.00;5011901;28;20038;-82
2023/04/10 00:18:06;;;;;;;10.35;6.75;;;;;;;10.23;53.52;100962.34;5010184;28;20026;-82
2023/04/10 00:20:31;;;;;;;10.88;6.70;;;;;;;10.20;54.04;100965.28;5011841;28;20029;-82
2023/04/10 00:22:57;;;;;;;11.02;5.90;;;;;;;10.21;53.59;100962.44;5012201;28;20550;-84
2023/04/10 00:25:22;;;;;;;10.18;6.70;;;;;;;10.27;53.61;100956.63;5012224;28;20030;-82
2023/04/10 00:27:48;;;;;;;12.02;6.55;;;;;;;10.30;53.71;100955.56;5012025;28;20025;-83
2023/04/10 00:30:14;;;;;;;18.63;6.47;;;;;;;10.33;53.47;100949.94;5027606;28;20026;-83
2023/04/10 00:32:42;;;;;;;8.05;5.50;;;;;;;10.32;53.04;100953.59;5027569;28;20089;-84
2023/04/10 00:35:08;;;;;;;12.82;6.20;;;;;;;10.31;53.47;100954.56;5015172;28;20080;-83
2023/04/10 00:37:33;;;;;;;15.60;7.43;;;;;;;10.26;53.58;100946.84;5011693;28;20033;-83
2023/04/10 00:39:59;;;;;;;11.82;6.22;;;;;;;10.28;53.62;100952.09;5011185;28;20022;-83
2023/04/10 00:42:25;;;;;;;17.35;6.63;;;;;;;10.33;53.43;100947.25;5011229;28;20135;-82
2023/04/10 00:44:50;;;;;;;10.23;6.25;;;;;;;10.33;53.58;100939.19;5011386;28;20022;-83
2023/04/10 00:47:16;;;;;;;7.43;5.57;;;;;;;10.32;53.42;100937.47;5010985;28;20037;-83
2023/04/10 00:49:42;;;;;;;8.52;5.60;;;;;;;10.24;53.44;100919.22;5009756;28;20417;-82
2023/04/10 00:52:08;;;;;;;8.77;6.18;;;;;;;10.29;53.82;100938.56;5011177;28;20030;-83
2023/04/10 00:54:35;;;;;;;10.43;6.13;;;;;;;10.27;53.72;100934.28;5010673;28;20030;-83
2023/04/10 00:57:02;;;;;;;9.82;6.35;;;;;;;10.26;54.07;100925.34;5010850;28;20468;-83
2023/04/10 00:59:28;;;;;;;14.32;6.28;;;;;;;10.28;54.14;100918.00;5009982;28;20026;-83
2023/04/10 01:01:53;;;;;;;11.68;5.40;;;;;;;10.26;53.60;100911.06;5010692;28;20041;-83
2023/04/10 01:04:19;;;;;;;8.10;5.38;;;;;;;10.38;53.44;100916.34;5010819;28;20485;-83
2023/04/10 01:06:59;;;;;;;6.82;4.65;;;;;;;10.41;52.73;100915.25;5011080;28;20455;-83
2023/04/10 01:10:03;;;;;;;10.35;6.07;;;;;;;10.47;52.72;100920.16;5010705;28;20544;-82
2023/04/10 01:12:50;;;;;;;8.60;5.93;;;;;;;10.43;53.19;100913.31;5010661;28;20065;-83
2023/04/10 01:15:19;;;;;;;7.70;5.20;;;;;;;10.37;53.02;100917.31;5010677;28;20034;-83
2023/04/10 01:18:08;;;;;;;7.65;5.32;;;;;;;10.37;53.23;100913.75;5010935;28;20041;-83
2023/04/10 01:20:38;;;;;;;7.60;5.40;;;;;;;10.35;52.57;100910.34;5011134;28;20052;-83
2023/04/10 01:23:41;;;;;;;7.35;4.53;;;;;;;10.26;52.67;100911.06;5011588;28;20339;-82
2023/04/10 01:26:09;;;;;;;7.90;5.03;;;;;;;10.16;52.71;100893.88;5011835;28;20474;-82
2023/04/10 01:28:41;;;;;;;8.30;5.68;;;;;;;10.21;52.76;100911.38;5035195;28;20042;-82
2023/04/10 01:31:12;;;;;;;8.43;5.93;;;;;;;10.23;52.76;100911.28;5028673;28;20049;-83
2023/04/10 01:33:45;;;;;;;6.90;4.78;;;;;;;10.16;52.69;100913.56;5017875;28;20137;-83
2023/04/10 01:36:16;;;;;;;5.50;4.57;;;;;;;10.11;53.21;100904.09;4991891;28;20046;-83
2023/04/10 01:38:44;;;;;;;6.97;4.65;;;;;;;10.10;53.00;100897.00;5010789;28;20037;-82
2023/04/10 01:41:10;;;;;;;7.10;4.53;;;;;;;10.09;53.00;100904.19;5009098;28;20401;-83
2023/04/10 01:43:39;;;;;;;7.47;5.18;;;;;;;10.05;53.02;100899.19;5010044;28;20109;-83
2023/04/10 01:46:05;;;;;;;7.50;5.40;;;;;;;10.09;53.29;100903.38;5010042;28;20021;-83
2023/04/10 01:48:31;;;;;;;6.97;5.22;;;;;;;10.08;53.58;100898.97;5010465;28;20068;-82
2023/04/10 01:50:58;;;;;;;7.40;4.90;;;;;;;10.15;53.52;100909.16;5009797;28;20508;-83
2023/04/10 01:53:24;;;;;;;7.03;5.35;;;;;;;10.14;53.43;100904.78;5009670;28;20117;-83
2023/04/10 01:55:52;;;;;;;7.55;4.80;;;;;;;10.24;53.16;100899.56;5009731;28;20088;-83
2023/04/10 01:58:18;;;;;;;11.90;5.70;;;;;;;10.20;53.36;100896.25;5010153;28;20124;-82
2023/04/10 02:00:43;;;;;;;6.95;4.97;;;;;;;10.16;53.61;100883.13;5010016;28;20106;-81
2023/04/10 02:03:09;;;;;;;7.53;5.40;;;;;;;10.14;53.52;100890.47;5010069;28;20052;-84
2023/04/10 02:05:50;;;;;;;9.65;6.25;;;;;;;10.10;53.84;100895.19;5009043;28;20073;-81
2023/04/10 02:08:36;;;;;;;7.47;5.60;;;;;;;10.11;54.67;100893.34;5009796;28;20052;-83
2023/04/10 02:11:37;;;;;;;8.95;6.30;;;;;;;10.06;55.18;100892.84;5009737;28;20542;-83
2023/04/10 02:14:06;;;;;;;11.55;6.43;;;;;;;10.05;55.00;100883.06;4968612;28;20130;-82
2023/04/10 02:16:32;;;;;;;9.10;6.15;;;;;;;10.01;55.19;100879.75;4968101;28;20041;-81
2023/04/10 02:19:00;;;;;;;8.77;5.28;;;;;;;10.01;55.47;100873.50;4968369;28;20110;-84
2023/04/10 02:21:26;;;;;;;8.35;6.35;;;;;;;9.98;56.09;100871.06;4968624;28;20232;-81
2023/04/10 02:23:52;;;;;;;15.13;6.43;;;;;;;9.95;56.43;100873.97;4968799;28;20030;-81
2023/04/10 02:26:17;;;;;;;13.18;6.50;;;;;;;10.03;56.21;100874.28;4970486;28;20110;-80
2023/04/10 02:28:43;;;;;;;8.77;6.50;;;;;;;10.03;56.94;100877.78;4986292;28;20101;-81
2023/04/10 02:31:08;;;;;;;7.82;6.05;;;;;;;10.09;57.15;100880.03;4984849;28;20269;-80
2023/04/10 02:33:33;;;;;;;9.85;6.82;;;;;;;10.06;56.77;100871.34;4970829;28;20099;-83
2023/04/10 02:36:00;;;;;;;9.48;6.35;;;;;;;10.06;56.85;100877.56;4968458;28;20913;-82
2023/04/10 02:38:26;;;;;;;8.85;6.25;;;;;;;9.94;57.34;100866.91;4967967;28;20041;-82
2023/04/10 02:40:51;;;;;;;8.52;6.07;;;;;;;9.87;57.27;100841.47;4968622;28;20039;-82
2023/04/10 02:43:17;;;;;;;11.57;7.13;;;;;;;10.04;57.62;100878.66;4967880;28;20042;-83
2023/04/10 02:45:43;;;;;;;8.43;6.75;;;;;;;10.05;57.63;100880.38;4968479;28;20097;-82
2023/04/10 02:48:09;;;;;;;9.32;6.68;;;;;;;10.00;57.76;100872.66;4991313;28;20045;-83
2023/04/10 02:50:35;;;;;;;9.07;7.25;;;;;;;10.04;57.48;100865.22;5009198;28;20049;-83
2023/04/10 02:53:01;;;;;;;15.05;7.97;;;;;;;10.05;58.04;100875.00;5010295;28;20478;-82
2023/04/10 02:55:26;;;;;;;9.60;7.85;;;;;;;10.11;57.99;100877.22;5016402;28;20026;-82
2023/04/10 02:57:51;;;;;;;10.07;7.13;;;;;;;10.09;57.69;100860.38;5007892;28;20382;-82
2023/04/10 03:00:18;;;;;;;11.20;7.13;;;;;;;10.12;58.20;100877.09;5009697;28;20477;-83
2023/04/10 03:02:44;;;;;;;15.77;7.65;;;;;;;10.14;57.88;100874.34;5008361;28;20046;-82
2023/04/10 03:05:10;;;;;;;12.30;8.15;;;;;;;10.07;58.19;100856.94;5008329;28;20025;-83
2023/04/10 03:07:35;;;;;;;18.88;8.70;;;;;;;10.13;58.38;100867.22;5009448;28;20456;-82
2023/04/10 03:10:01;;;;;;;13.95;7.68;;;;;;;10.12;58.47;100870.91;5009737;28;20438;-82
2023/04/10 03:12:26;;;;;;;14.15;8.15;;;;;;;10.14;58.78;100866.28;5010036;28;20026;-82
2023/04/10 03:14:52;;;;;;;8.75;6.88;;;;;;;10.14;58.88;100875.22;5009655;28;20159;-82
2023/04/10 03:17:17;;;;;;;8.13;6.70;;;;;;;10.16;58.84;100861.63;5011385;28;20034;-82
2023/04/10 03:19:43;;;;;;;37.42;10.27;;;;;;;10.15;58.58;100858.09;5013924;28;20747;-83
2023/04/10 03:22:09;;;;;;;8.45;6.90;;;;;;;10.19;58.62;100874.84;5013974;28;20018;-82
2023/04/10 03:24:35;;;;;;;11.57;8.25;;;;;;;10.21;59.15;100862.16;5014039;28;20080;-82
2023/04/10 03:27:01;;;;;;;11.38;6.80;;;;;;;10.16;59.38;100857.13;5023914;28;20022;-82
2023/04/10 03:29:26;;;;;;;9.55;7.45;;;;;;;10.13;59.44;100849.28;5027508;28;20034;-82
2023/04/10 03:31:51;;;;;;;14.77;9.25;;;;;;;10.12;60.04;100852.09;5019280;28;20069;-81
2023/04/10 03:34:17;;;;;;;15.32;7.95;;;;;;;10.16;60.18;100853.56;5013434;28;20026;-82
2023/04/10 03:36:42;;;;;;;13.52;8.70;;;;;;;10.07;60.64;100848.88;5014383;28;20469;-82
2023/04/10 03:39:08;;;;;;;11.00;8.00;;;;;;;10.15;60.68;100854.56;5013639;28;20105;-82
2023/04/10 03:41:33;;;;;;;21.85;9.30;;;;;;;10.09;61.11;100849.63;5014640;28;20033;-83
2023/04/10 03:44:02;;;;;;;20.17;9.48;;;;;;;10.07;61.57;100844.34;5014584;28;20026;-83
2023/04/10 03:46:27;;;;;;;21.05;10.10;;;;;;;10.03;61.60;100850.91;5015265;28;20029;-83
2023/04/10 03:48:53;;;;;;;14.38;9.60;;;;;;;10.00;61.95;100847.63;5030930;28;20026;-81
2023/04/10 03:51:18;;;;;;;11.85;8.57;;;;;;;10.03;61.58;100833.97;5035006;28;20044;-82
2023/04/10 03:53:44;;;;;;;29.60;9.90;;;;;;;10.08;62.02;100842.53;5034493;28;20101;-83
2023/04/10 03:56:09;;;;;;;16.70;10.35;;;;;;;10.11;62.12;100847.66;5017320;28;20069;-82
2023/04/10 03:58:35;;;;;;;15.68;9.93;;;;;;;10.13;61.71;100845.72;5016525;28;20026;-82
2023/04/10 04:01:00;;;;;;;15.50;9.88;;;;;;;10.15;61.85;100855.41;5015439;28;20040;-82
2023/04/10 04:03:26;;;;;;;16.35;10.23;;;;;;;10.17;61.52;100842.72;5013035;28;20029;-82
2023/04/10 04:05:51;;;;;;;14.10;9.52;;;;;;;10.19;61.61;100853.34;5012942;28;20426;-82
2023/04/10 04:08:17;;;;;;;15.75;8.77;;;;;;;10.25;61.67;100864.50;5027715;28;20030;-83
2023/04/10 04:10:42;;;;;;;16.42;9.10;;;;;;;10.25;61.36;100860.94;5011881;28;20100;-81
2023/04/10 04:13:07;;;;;;;21.52;10.13;;;;;;;10.29;61.22;100846.28;5012134;28;20397;-82
2023/04/10 04:15:33;;;;;;;25.60;13.50;;;;;;;10.36;60.79;100863.69;5012115;28;20656;-83
2023/04/10 04:17:59;;;;;;;17.38;9.25;;;;;;;10.36;60.74;100863.69;5012334;28;20029;-83
2023/04/10 04:20:25;;;;;;;21.23;9.73;;;;;;;10.31;60.83;100855.09;5012640;28;20030;-83
2023/04/10 04:22:50;;;;;;;25.20;10.48;;;;;;;10.39;60.93;100866.13;5012459;28;20935;-82
2023/04/10 04:25:17;;;;;;;14.10;10.15;;;;;;;10.36;61.11;100855.63;5016767;28;20111;-82
2023/04/10 04:27:42;;;;;;;19.77;9.05;;;;;;;10.43;61.13;100856.84;5026408;28;20049;-82
2023/04/10 04:30:08;;;;;;;27.02;9.13;;;;;;;10.38;60.96;100849.13;5022497;28;20435;-82
2023/04/10 04:32:33;;;;;;;25.40;10.20;;;;;;;10.49;60.72;100859.03;5011217;28;20053;-82
2023/04/10 04:34:59;;;;;;;20.48;11.05;;;;;;;10.48;60.78;100857.34;5012170;28;20385;-82
2023/04/10 04:37:24;;;;;;;19.52;9.13;;;;;;;10.49;60.58;100861.75;5011614;28;20030;-84
2023/04/10 04:39:49;;;;;;;27.92;10.02;;;;;;;10.51;60.93;100862.50;5011611;28;20026;-82
2023/04/10 04:42:15;;;;;;;18.10;9.27;;;;;;;10.56;60.78;100867.50;5026401;28;20030;-82
2023/04/10 04:44:40;;;;;;;53.83;9.52;;;;;;;10.65;60.46;100869.47;5010824;28;20034;-83
2023/04/10 04:47:06;;;;;;;18.38;9.50;;;;;;;10.64;60.41;100859.72;5011172;28;20136;-83
2023/04/10 04:49:31;;;;;;;10.77;8.35;;;;;;;10.54;60.82;100856.88;5011313;28;20029;-82
2023/04/10 04:51:57;;;;;;;15.20;8.10;;;;;;;10.58;60.86;100855.66;5011706;28;20037;-82
2023/04/10 04:54:22;;;;;;;42.97;9.90;;;;;;;10.65;60.54;100851.50;5014781;28;20030;-82
2023/04/10 04:56:47;;;;;;;69.75;11.38;;;;;;;10.68;60.42;100839.66;5015294;28;20032;-83
2023/04/10 04:59:13;;;;;;;34.47;10.13;;;;;;;10.75;60.76;100849.81;5010344;28;20022;-83
2023/04/10 05:01:38;;;;;;;13.18;8.77;;;;;;;10.82;60.33;100842.13;5011170;28;20473;-82
2023/04/10 05:04:04;;;;;;;15.27;8.63;;;;;;;10.86;59.73;100847.13;5011317;28;20022;-82
2023/04/10 05:06:30;;;;;;;31.08;9.82;;;;;;;10.93;60.29;100856.44;5010825;28;20545;-82
2023/04/10 05:08:56;;;;;;;24.08;9.38;;;;;;;10.95;59.61;100860.84;5010851;28;20080;-82
2023/04/10 05:11:21;;;;;;;14.07;8.48;;;;;;;10.95;60.23;100844.72;5010938;28;20460;-82
2023/04/10 05:13:47;;;;;;;24.65;10.10;;;;;;;11.10;59.81;100871.22;5011149;28;20021;-84
2023/04/10 05:16:12;;;;;;;17.40;10.57;;;;;;;11.13;59.38;100870.16;5011986;28;20053;-83
2023/04/10 05:18:38;;;;;;;24.70;9.15;;;;;;;11.15;58.82;100862.81;5014435;28;20556;-82
2023/04/10 05:21:03;;;;;;;16.20;9.48;;;;;;;11.21;58.97;100862.31;5011692;28;20030;-82
2023/04/10 05:23:29;;;;;;;32.72;10.73;;;;;;;11.28;58.66;100860.84;5011587;28;20030;-83
2023/04/10 05:25:54;;;;;;;18.15;9.85;;;;;;;11.26;58.61;100839.41;5025932;28;20026;-81
2023/04/10 05:28:20;;;;;;;24.33;10.68;;;;;;;11.37;58.36;100857.41;5027321;28;20029;-82
2023/04/10 05:30:46;;;;;;;40.30;11.40;;;;;;;11.41;58.17;100858.84;5014783;28;20036;-82
2023/04/10 05:33:11;;;;;;;19.20;10.15;;;;;;;11.50;58.10;100855.41;5010972;28;20128;-82
2023/04/10 05:35:37;;;;;;;15.60;9.88;;;;;;;11.59;58.02;100861.91;5011304;28;20036;-82
2023/04/10 05:38:02;;;;;;;42.80;15.27;;;;;;;11.65;57.85;100853.31;5010894;28;20468;-82
2023/04/10 05:40:28;;;;;;;16.33;9.30;;;;;;;11.77;57.67;100861.25;5008806;28;20030;-84
2023/04/10 05:42:53;;;;;;;24.23;10.98;;;;;;;11.82;57.36;100852.81;5010436;28;20026;-82
2023/04/10 05:45:20;;;;;;;28.77;9.75;;;;;;;11.88;56.64;100863.94;5010150;28;20053;-83
2023/04/10 05:47:45;;;;;;;50.33;11.52;;;;;;;11.90;56.97;100864.66;5010086;28;20029;-84
2023/04/10 05:50:11;;;;;;;25.50;10.93;;;;;;;12.02;56.46;100867.34;5010233;28;20444;-82
2023/04/10 05:52:36;;;;;;;68.43;16.58;;;;;;;12.05;56.75;100864.38;5010134;28;20021;-81
2023/04/10 05:55:02;;;;;;;20.48;10.13;;;;;;;12.08;56.19;100864.97;5009805;28;20068;-83
2023/04/10 05:57:28;;;;;;;18.80;9.50;;;;;;;12.20;56.02;100866.63;5010508;28;20076;-82
2023/04/10 05:59:54;;;;;;;21.05;9.73;;;;;;;12.15;56.40;100868.00;5009865;28;20107;-83
2023/04/10 06:02:20;;;;;;;20.30;10.38;;;;;;;12.20;55.79;100868.50;5010115;28;20868;-83
2023/04/10 06:04:46;;;;;;;68.10;12.63;;;;;;;12.29;55.53;100873.09;5009823;28;20030;-82
2023/04/10 06:07:11;;;;;;;34.28;11.18;;;;;;;12.17;56.17;100849.88;5010388;28;20028;-84
2023/04/10 06:09:36;;;;;;;18.40;9.73;;;;;;;12.21;55.92;100880.97;5010285;28;20026;-83
2023/04/10 06:12:02;;;;;;;11.77;9.55;;;;;;;12.16;55.77;100867.88;5009888;28;20095;-83
2023/04/10 06:14:27;;;;;;;18.80;9.80;;;;;;;12.21;56.01;100876.44;5010418;28;20413;-83
2023/04/10 06:16:53;;;;;;;16.98;9.80;;;;;;;12.16;55.53;100877.81;5011104;28;20025;-83
2023/04/10 06:19:18;;;;;;;32.10;11.20;;;;;;;12.10;55.82;100864.84;5010655;28;20030;-82
2023/04/10 06:21:44;;;;;;;21.90;10.65;;;;;;;12.18;55.93;100871.31;5010542;28;20033;-82
2023/04/10 06:24:10;;;;;;;61.97;14.90;;;;;;;12.24;55.83;100886.09;5020832;28;20136;-81
2023/04/10 06:26:36;;;;;;;22.20;10.73;;;;;;;12.20;55.43;100887.38;5026953;28;20469;-82
2023/04/10 06:29:02;;;;;;;30.40;12.20;;;;;;;12.24;55.64;100891.50;5019171;28;20030;-83
2023/04/10 06:31:27;;;;;;;27.67;11.70;;;;;;;12.27;55.49;100891.22;5009605;28;20088;-82
2023/04/10 06:33:52;;;;;;;17.58;10.80;;;;;;;12.29;54.88;100894.69;5010012;28;20520;-82
2023/04/10 06:36:18;;;;;;;31.55;12.32;;;;;;;12.31;54.97;100895.41;5009426;28;20025;-81
2023/04/10 06:38:43;;;;;;;16.33;9.90;;;;;;;12.38;54.36;100904.69;5009565;28;20072;-84
2023/04/10 06:41:09;;;;;;;18.05;10.15;;;;;;;12.40;54.62;100897.31;5023312;28;20038;-82
2023/04/10 06:43:35;;;;;;;21.98;10.13;;;;;;;12.47;54.48;100898.50;5009466;28;20473;-83
2023/04/10 06:46:04;;;;;;;21.60;10.88;;;;;;;12.49;53.92;100896.53;5006849;28;20034;-83
2023/04/10 06:48:33;;;;;;;21.52;11.07;;;;;;;12.59;53.74;100902.00;5009456;28;20034;-84
2023/04/10 06:51:01;;;;;;;17.85;10.27;;;;;;;12.57;53.85;100888.63;5009078;28;20033;-83
2023/04/10 06:53:27;;;;;;;35.20;13.90;;;;;;;12.62;53.51;100896.34;5009322;28;20022;-83
2023/04/10 06:55:52;;;;;;;29.45;11.35;;;;;;;12.67;53.14;100894.09;5009217;28;20768;-84
2023/04/10 06:58:18;;;;;;;27.38;11.27;;;;;;;12.79;53.22;100904.69;5009229;28;20052;-84
2023/04/10 07:00:43;;;;;;;25.45;11.35;;;;;;;12.81;52.99;100905.41;5009031;28;20032;-84
2023/04/10 07:03:09;;;;;;;23.38;10.80;;;;;;;12.83;52.95;100889.09;5009125;28;20076;-83
2023/04/10 07:05:34;;;;;;;40.42;11.43;;;;;;;12.94;52.99;100895.28;5008963;28;20025;-83
2023/04/10 07:08:00;;;;;;;20.52;13.30;;;;;;;13.13;52.96;100908.06;5009010;28;20156;-84
2023/04/10 07:10:25;;;;;;;25.40;11.13;;;;;;;13.03;52.58;100910.66;5009371;28;20033;-84
2023/04/10 07:12:51;;;;;;;30.95;11.73;;;;;;;12.99;52.56;100878.69;5009553;28;20037;-83
2023/04/10 07:15:16;;;;;;;37.60;13.43;;;;;;;13.16;52.97;100897.00;5010874;28;20037;-81
2023/04/10 07:17:42;;;;;;;25.95;12.30;;;;;;;13.32;52.44;100891.94;5015695;28;20022;-83
2023/04/10 07:20:08;;;;;;;20.63;10.73;;;;;;;13.38;52.31;100893.25;5014068;28;20104;-83
2023/04/10 07:22:34;;;;;;;23.58;10.73;;;;;;;13.50;51.77;100892.16;5015433;28;20077;-83
2023/04/10 07:24:59;;;;;;;26.52;11.75;;;;;;;13.66;51.87;100897.03;5024537;28;20052;-84
2023/04/10 07:27:25;;;;;;;39.50;12.75;;;;;;;13.81;51.79;100893.81;5023641;28;20133;-82
2023/04/10 07:29:55;;;;;;;17.10;10.75;;;;;;;13.93;51.44;100898.09;5009587;28;20117;-84
2023/04/10 07:32:21;;;;;;;18.42;10.50;;;;;;;13.95;51.44;100895.25;5009478;28;20090;-84
2023/04/10 07:34:47;;;;;;;22.00;10.50;;;;;;;14.05;50.99;100885.31;5009420;28;20116;-83
2023/04/10 07:37:12;;;;;;;30.88;11.68;;;;;;;14.01;51.12;100900.94;5011919;28;20034;-83
2023/04/10 07:39:38;;;;;;;24.40;10.10;;;;;;;14.03;51.17;100909.81;5012821;28;20026;-83
2023/04/10 07:42:03;;;;;;;48.80;11.60;;;;;;;14.23;50.99;100898.97;5016798;28;20030;-84
2023/04/10 07:44:29;;;;;;;17.10;9.10;;;;;;;14.21;50.58;100898.28;5009691;28;20049;-83
2023/04/10 07:46:54;;;;;;;18.45;10.07;;;;;;;14.34;50.72;100894.31;5009619;28;20041;-83
2023/04/10 07:49:20;;;;;;;15.77;9.63;;;;;;;14.47;50.33;100896.72;5009379;28;20026;-84
2023/04/10 07:51:45;;;;;;;16.02;10.48;;;;;;;14.42;50.72;100891.75;5009303;28;20034;-84
2023/04/10 07:54:11;;;;;;;22.60;9.75;;;;;;;14.37;50.86;100885.09;5009718;28;20485;-84
2023/04/10 07:56:36;;;;;;;17.80;11.15;;;;;;;14.35;50.85;100873.53;5009155;28;20409;-83
2023/04/10 07:59:02;;;;;;;26.40;11.43;;;;;;;14.50;50.89;100874.78;5009365;28;20475;-83
2023/04/10 08:01:27;;;;;;;20.48;11.68;;;;;;;14.81;50.44;100878.16;5009833;28;20026;-81
2023/04/10 08:03:54;;;;;;;18.30;9.25;;;;;;;14.96;50.19;100866.72;5013074;28;20033;-82
2023/04/10 08:06:20;;;;;;;26.80;10.07;;;;;;;15.14;49.95;100864.97;5030108;28;20032;-82
2023/04/10 08:08:46;;;;;;;13.45;9.68;;;;;;;15.09;50.00;100858.28;5036585;28;20050;-83
2023/04/10 08:11:27;;;;;;;15.45;10.45;;;;;;;15.14;49.79;100859.53;5034996;28;20054;-84
2023/04/10 08:13:57;;;;;;;16.63;9.05;;;;;;;15.11;49.74;100851.72;5019414;28;20037;-83
2023/04/10 08:16:28;;;;;;;18.48;9.18;;;;;;;15.18;49.96;100855.53;5018995;28;20100;-83
2023/04/10 08:18:56;;;;;;;21.42;9.43;;;;;;;15.22;49.79;100850.69;5032497;28;20060;-82
2023/04/10 08:21:23;;;;;;;27.67;11.50;;;;;;;15.16;49.86;100849.44;5016543;28;20512;-83
2023/04/10 08:23:53;;;;;;;21.42;10.32;;;;;;;15.30;49.88;100863.47;5025869;28;20083;-84
2023/04/10 08:26:20;;;;;;;23.98;10.63;;;;;;;15.06;50.05;100845.91;5027051;28;20026;-84
2023/04/10 08:28:49;;;;;;;24.75;9.80;;;;;;;15.16;50.08;100852.13;5011647;28;20026;-82
2023/04/10 08:31:20;;;;;;;19.15;10.75;;;;;;;15.19;50.37;100854.56;5012297;28;20022;-82
2023/04/10 08:33:45;;;;;;;19.15;10.23;;;;;;;15.27;50.46;100860.06;5011865;28;20437;-82
2023/04/10 08:36:12;;;;;;;25.63;12.75;;;;;;;15.29;50.58;100856.38;5011578;28;20057;-84
2023/04/10 08:38:38;;;;;;;27.35;11.73;;;;;;;15.30;50.44;100858.03;5011534;28;20036;-84
2023/04/10 08:41:05;;;;;;;35.67;13.63;;;;;;;15.14;51.10;100859.53;5012160;28;20034;-83
2023/04/10 08:43:31;;;;;;;24.58;12.63;;;;;;;15.21;50.98;100855.25;5011277;28;20034;-84
2023/04/10 08:45:57;;;;;;;19.75;11.23;;;;;;;15.21;51.14;100838.97;5011230;28;20026;-83
2023/04/10 08:48:30;;;;;;;19.23;11.27;;;;;;;15.15;51.44;100845.00;5011206;28;20141;-84
2023/04/10 08:51:00;;;;;;;25.88;13.80;;;;;;;15.26;51.66;100836.66;5011025;28;20569;-82
2023/04/10 08:53:29;;;;;;;27.60;16.38;;;;;;;15.47;51.52;100843.72;5011412;28;20128;-83
2023/04/10 08:55:55;;;;;;;27.33;14.35;;;;;;;15.57;50.98;100822.84;5011302;28;20018;-82
2023/04/10 08:58:22;;;;;;;31.70;15.68;;;;;;;15.75;51.30;100821.00;5011460;28;20132;-82
2023/04/10 09:00:48;;;;;;;36.00;13.75;;;;;;;15.80;51.22;100813.28;5010946;28;20026;-83
2023/04/10 09:03:14;;;;;;;28.02;10.93;;;;;;;15.86;50.23;100823.50;5011649;28;20030;-82
2023/04/10 09:05:40;;;;;;;24.13;10.30;;;;;;;15.76;50.17;100806.44;5010850;28;20072;-83
2023/04/10 09:08:09;;;;;;;242.15;36.22;;;;;;;15.79;50.50;100811.56;5010973;28;20037;-84
2023/04/10 09:10:35;;;;;;;51.33;14.05;;;;;;;15.97;50.37;100815.13;5010902;28;20030;-84
2023/04/10 09:13:01;;;;;;;30.13;11.40;;;;;;;15.74;50.83;100803.91;5011251;28;20030;-84
2023/04/10 09:15:26;;;;;;;21.30;11.38;;;;;;;15.82;51.34;100804.97;5011066;28;20029;-82
2023/04/10 09:17:57;;;;;;;30.70;12.32;;;;;;;15.91;51.08;100799.47;5012422;28;20066;-83
2023/04/10 09:20:24;;;;;;;28.00;13.57;;;;;;;15.73;51.83;100809.47;5013435;28;20030;-83
2023/04/10 09:22:50;;;;;;;36.13;17.05;;;;;;;15.58;52.46;100790.16;5026480;28;20028;-83
2023/04/10 09:25:40;;;;;;;18.70;13.23;;;;;;;15.45;53.06;100796.91;5026192;28;20022;-82
2023/04/10 09:28:07;;;;;;;44.85;16.13;;;;;;;15.56;53.27;100810.31;5010288;28;20064;-82
2023/04/10 09:30:41;;;;;;;28.52;14.23;;;;;;;15.59;53.53;100800.03;5010314;28;20455;-81
2023/04/10 09:33:26;;;;;;;30.48;13.52;;;;;;;15.67;53.68;100791.97;5010360;28;20057;-84
2023/04/10 09:35:53;;;;;;;36.40;14.27;;;;;;;15.48;53.87;100780.38;5011306;28;20365;-84
2023/04/10 09:38:20;;;;;;;31.23;14.38;;;;;;;15.49;53.98;100782.09;5013210;28;20432;-84
2023/04/10 09:40:47;;;;;;;21.33;12.43;;;;;;;15.50;54.22;100778.38;5010144;28;20034;-83
2023/04/10 09:43:26;;;;;;;25.75;11.65;;;;;;;15.56;54.36;100777.78;5012984;28;20041;-82
2023/04/10 09:45:53;;;;;;;18.63;10.88;;;;;;;15.62;53.90;100783.44;5011991;28;20101;-82
2023/04/10 09:48:20;;;;;;;33.55;11.80;;;;;;;15.46;54.02;100775.09;5010490;28;20029;-84
2023/04/10 09:50:46;;;;;;;32.25;12.07;;;;;;;15.66;54.44;100783.97;5010303;28;20022;-83
2023/04/10 09:53:15;;;;;;;19.83;12.10;;;;;;;15.52;54.30;100770.94;5009980;28;20030;-83
2023/04/10 09:55:42;;;;;;;30.55;13.50;;;;;;;15.67;54.33;100781.13;5009760;28;20072;-84
2023/04/10 09:58:08;;;;;;;24.63;10.23;;;;;;;15.67;54.03;100769.41;5009949;28;20472;-81
2023/04/10 10:00:52;;;;;;;22.92;10.30;;;;;;;15.88;53.77;100769.94;5009553;28;20025;-83
2023/04/10 10:03:21;;;;;;;30.80;9.60;;;;;;;15.92;53.31;100774.06;5009988;28;20026;-84
2023/04/10 10:05:50;;;;;;;26.13;8.23;;;;;;;15.84;52.59;100776.69;5010863;28;20092;-84
2023/04/10 10:08:16;;;;;;;15.38;8.52;;;;;;;15.86;52.57;100758.41;5012752;28;20026;-82
2023/04/10 10:11:07;;;;;;;11.23;8.10;;;;;;;15.76;52.84;100769.34;5008969;28;20044;-82
2023/04/10 10:13:45;;;;;;;17.05;8.18;;;;;;;15.89;52.25;100752.69;5010396;28;20512;-84
2023/04/10 10:17:05;;;;;;;24.25;10.15;;;;;;;15.91;52.39;100756.09;5009805;28;20112;-83
2023/04/10 10:19:41;;;;;;;25.17;8.77;;;;;;;15.74;52.28;100755.09;4970645;28;20035;-83
2023/04/10 10:22:08;;;;;;;43.28;9.70;;;;;;;15.73;53.03;100744.38;4982832;28;20058;-83
2023/04/10 10:24:37;;;;;;;27.45;8.75;;;;;;;15.74;52.89;100748.81;4982630;28;20042;-83
2023/04/10 10:27:08;;;;;;;11.63;7.63;;;;;;;15.77;53.39;100748.50;4950648;28;20510;-82
2023/04/10 10:29:36;;;;;;;25.90;8.25;;;;;;;15.72;53.42;100739.97;4967740;28;20411;-84
2023/04/10 10:32:03;;;;;;;15.82;8.88;;;;;;;15.82;53.05;100738.03;4967934;28;20210;-84
2023/04/10 10:34:30;;;;;;;26.13;8.60;;;;;;;15.89;53.26;100741.84;4968173;28;20042;-84
2023/04/10 10:36:57;;;;;;;121.18;17.40;;;;;;;15.85;53.15;100739.56;4967826;28;20326;-83
2023/04/10 10:39:44;;;;;;;39.20;10.70;;;;;;;15.87;52.76;100732.97;4967312;28;20056;-83
2023/04/10 10:42:29;;;;;;;36.90;10.55;;;;;;;15.75;53.29;100737.78;4967331;28;20039;-84
2023/04/10 10:45:10;;;;;;;20.65;8.50;;;;;;;15.72;53.28;100734.53;4967417;28;20053;-82
2023/04/10 10:47:43;;;;;;;23.92;8.68;;;;;;;15.83;52.54;100725.31;4967120;28;20053;-84
2023/04/10 10:50:09;;;;;;;25.70;8.23;;;;;;;15.85;51.55;100713.31;4967147;28;20596;-83
2023/04/10 10:52:48;;;;;;;31.67;10.35;;;;;;;15.94;51.77;100706.94;4972321;28;20046;-83
2023/04/10 10:55:34;;;;;;;23.75;8.77;;;;;;;16.03;50.95;100700.56;5009233;28;20417;-83
2023/04/10 10:58:10;;;;;;;13.55;7.28;;;;;;;15.99;51.42;100701.06;5008506;28;20041;-82
2023/04/10 11:00:50;;;;;;;16.30;6.45;;;;;;;16.07;50.52;100699.25;5009094;28;20060;-85
2023/04/10 11:03:15;;;;;;;17.88;7.55;;;;;;;15.88;50.67;100691.28;5009861;28;20033;-84
2023/04/10 11:06:01;;;;;;;12.02;8.02;;;;;;;16.01;50.70;100686.31;5008914;28;20038;-81
2023/04/10 11:08:32;;;;;;;17.10;7.55;;;;;;;15.92;49.86;100671.00;5006445;28;20076;-84
2023/04/10 11:11:09;;;;;;;16.20;6.97;;;;;;;16.01;50.00;100680.91;5006142;28;20193;-84
2023/04/10 11:13:58;;;;;;;20.17;7.72;;;;;;;16.16;50.13;100679.31;5007023;28;20080;-82
2023/04/10 11:16:34;;;;;;;30.02;15.88;;;;;;;16.07;50.02;100688.41;4948320;28;20247;-82
2023/04/10 11:19:00;;;;;;;24.50;7.80;;;;;;;16.08;49.75;100691.97;4954432;28;20105;-84